createdAt,value
2022-08-21T00:02:08.229Z,13.83
2022-08-21T00:04:40.333Z,13.87
2022-08-21T00:07:25.575Z,13.89
2022-08-21T00:09:56.161Z,13.80
2022-08-21T00:12:25.967Z,13.87
2022-08-21T00:14:57.228Z,13.85
2022-08-21T00:17:27.846Z,14.01
2022-08-21T00:19:59.940Z,13.85
2022-08-21T00:22:29.442Z,13.79
2022-08-21T00:24:59.090Z,13.70
2022-08-21T00:27:28.586Z,13.55
2022-08-21T00:29:58.169Z,13.45
2022-08-21T00:32:29.944Z,13.38
2022-08-21T00:35:02.014Z,13.26
2022-08-21T00:37:31.694Z,13.26
2022-08-21T00:40:05.228Z,13.22
2022-08-21T00:42:34.992Z,13.16
2022-08-21T00:45:05.035Z,13.22
2022-08-21T00:47:34.522Z,13.37
2022-08-21T00:50:07.426Z,13.60
2022-08-21T00:52:38.301Z,13.81
2022-08-21T00:55:10.046Z,13.87
2022-08-21T00:57:43.327Z,13.60
2022-08-21T01:00:17.917Z,13.31
2022-08-21T01:02:47.910Z,13.33
2022-08-21T01:05:20.257Z,13.34
2022-08-21T01:07:49.859Z,13.55
2022-08-21T01:10:24.198Z,13.50
2022-08-21T01:12:56.090Z,13.53
2022-08-21T01:15:27.647Z,13.45
2022-08-21T01:17:57.629Z,13.50
2022-08-21T01:20:32.449Z,13.68
2022-08-21T01:23:06.535Z,13.63
2022-08-21T01:25:37.849Z,13.50
2022-08-21T01:28:12.330Z,13.51
2022-08-21T01:30:42.839Z,13.47
2022-08-21T01:33:12.463Z,13.37
2022-08-21T01:35:42.197Z,13.30
2022-08-21T01:38:14.435Z,13.22
2022-08-21T01:40:43.989Z,13.28
2022-08-21T01:43:13.653Z,13.39
2022-08-21T01:45:43.178Z,13.48
2022-08-21T01:48:12.681Z,13.42
2022-08-21T01:50:42.545Z,13.13
2022-08-21T01:53:15.658Z,13.04
2022-08-21T01:55:45.214Z,13.12
2022-08-21T01:58:14.717Z,13.15
2022-08-21T02:00:44.554Z,13.15
2022-08-21T02:03:14.052Z,13.14
2022-08-21T02:05:55.981Z,12.88
2022-08-21T02:08:28.109Z,12.81
2022-08-21T02:10:57.856Z,12.57
2022-08-21T02:13:27.313Z,12.56
2022-08-21T02:15:56.757Z,12.68
2022-08-21T02:18:26.327Z,12.99
2022-08-21T02:20:56.448Z,13.00
2022-08-21T02:23:28.946Z,13.13
2022-08-21T02:25:59.080Z,12.79
2022-08-21T02:28:29.455Z,12.77
2022-08-21T02:31:00.083Z,12.81
2022-08-21T02:33:29.922Z,12.93
2022-08-21T02:36:00.245Z,12.62
2022-08-21T02:38:34.366Z,12.62
2022-08-21T02:41:04.121Z,12.58
2022-08-21T02:43:33.712Z,12.46
2022-08-21T02:46:03.890Z,12.61
2022-08-21T02:48:35.554Z,12.54
2022-08-21T02:51:07.576Z,12.47
2022-08-21T02:53:39.746Z,12.73
2022-08-21T02:56:11.881Z,12.78
2022-08-21T02:58:44.324Z,12.82
2022-08-21T03:01:14.289Z,12.34
2022-08-21T03:03:45.785Z,12.12
2022-08-21T03:06:17.250Z,12.00
2022-08-21T03:08:49.405Z,11.99
2022-08-21T03:11:21.485Z,11.89
2022-08-21T03:13:50.948Z,11.97
2022-08-21T03:16:20.605Z,12.07
2022-08-21T03:18:50.161Z,11.98
2022-08-21T03:21:20.018Z,11.96
2022-08-21T03:23:52.264Z,12.06
2022-08-21T03:26:22.401Z,12.01
2022-08-21T03:28:52.966Z,11.97
2022-08-21T03:31:22.730Z,12.02
2022-08-21T03:33:56.023Z,11.86
2022-08-21T03:36:25.519Z,11.80
2022-08-21T03:38:57.619Z,11.84
2022-08-21T03:41:27.054Z,12.10
2022-08-21T03:43:56.493Z,12.43
2022-08-21T03:46:26.000Z,12.65
2022-08-21T03:48:56.004Z,12.83
2022-08-21T03:51:25.457Z,12.93
2022-08-21T03:53:57.550Z,12.78
2022-08-21T03:56:27.076Z,13.16
2022-08-21T03:58:56.681Z,13.44
2022-08-21T04:01:26.368Z,13.48
2022-08-21T04:03:55.878Z,13.63
2022-08-21T04:06:26.229Z,13.67
2022-08-21T04:08:58.338Z,13.82
2022-08-21T04:11:28.014Z,14.01
2022-08-21T04:13:57.474Z,13.87
2022-08-21T04:16:26.999Z,13.98
2022-08-21T04:18:56.454Z,13.43
2022-08-21T04:21:26.710Z,12.80
2022-08-21T04:24:00.563Z,12.64
2022-08-21T04:26:31.908Z,12.43
2022-08-21T04:29:01.664Z,12.54
2022-08-21T04:31:31.805Z,12.27
2022-08-21T04:34:01.378Z,12.23
2022-08-21T04:36:31.343Z,12.45
2022-08-21T04:39:03.676Z,12.38
2022-08-21T04:41:34.758Z,12.38
2022-08-21T04:44:04.258Z,12.58
2022-08-21T04:46:33.956Z,12.75
2022-08-21T04:49:03.442Z,12.71
2022-08-21T04:51:36.458Z,12.74
2022-08-21T04:54:13.092Z,12.77
2022-08-21T04:56:46.446Z,12.68
2022-08-21T04:59:18.433Z,12.58
2022-08-21T05:01:49.306Z,12.83
2022-08-21T05:04:21.903Z,12.93
2022-08-21T05:06:52.784Z,12.93
2022-08-21T05:09:25.514Z,13.13
2022-08-21T05:11:55.602Z,13.09
2022-08-21T05:14:26.089Z,12.86
2022-08-21T05:16:55.607Z,12.82
2022-08-21T05:19:25.169Z,12.83
2022-08-21T05:21:54.748Z,12.98
2022-08-21T05:24:27.086Z,13.04
2022-08-21T05:26:57.305Z,13.24
2022-08-21T05:29:26.804Z,13.49
2022-08-21T05:31:56.927Z,13.59
2022-08-21T05:34:27.258Z,13.77
2022-08-21T05:36:56.850Z,13.80
2022-08-21T05:39:28.930Z,13.82
2022-08-21T05:42:18.534Z,13.91
2022-08-21T05:44:48.007Z,13.78
2022-08-21T05:47:18.594Z,13.70
2022-08-21T05:49:48.114Z,13.84
2022-08-21T05:52:22.894Z,13.99
2022-08-21T05:54:56.074Z,14.22
2022-08-21T05:57:26.473Z,14.30
2022-08-21T05:59:56.987Z,14.28
2022-08-21T06:02:26.670Z,14.21
2022-08-21T06:04:56.122Z,14.47
2022-08-21T06:07:25.596Z,14.56
2022-08-21T06:09:57.703Z,14.63
2022-08-21T06:12:27.363Z,14.61
2022-08-21T06:14:56.865Z,14.56
2022-08-21T06:17:26.838Z,14.47
2022-08-21T06:19:57.343Z,14.27
2022-08-21T06:22:26.819Z,14.42
2022-08-21T06:24:58.883Z,14.58
2022-08-21T06:27:28.465Z,14.50
2022-08-21T06:29:58.529Z,14.54
2022-08-21T06:32:28.046Z,14.83
2022-08-21T06:34:57.537Z,14.80
2022-08-21T06:37:27.040Z,14.72
2022-08-21T06:39:59.193Z,14.96
2022-08-21T06:42:29.558Z,15.13
2022-08-21T06:45:01.703Z,15.14
2022-08-21T06:47:31.179Z,15.38
2022-08-21T06:50:00.786Z,15.51
2022-08-21T06:52:30.456Z,15.70
2022-08-21T06:55:02.575Z,15.48
2022-08-21T06:57:32.071Z,15.47
2022-08-21T07:00:01.764Z,15.50
2022-08-21T07:02:31.236Z,15.56
2022-08-21T07:05:01.849Z,15.66
2022-08-21T07:07:47.880Z,15.77
2022-08-21T07:10:22.255Z,15.93
2022-08-21T07:13:00.130Z,16.02
2022-08-21T07:15:31.687Z,16.13
2022-08-21T07:18:01.435Z,16.31
2022-08-21T07:20:31.480Z,16.39
2022-08-21T07:23:02.373Z,16.44
2022-08-21T07:25:34.966Z,16.60
2022-08-21T07:28:04.441Z,16.70
2022-08-21T07:30:34.064Z,16.79
2022-08-21T07:33:03.965Z,16.83
2022-08-21T07:35:34.243Z,16.94
2022-08-21T07:38:03.839Z,17.08
2022-08-21T07:40:36.029Z,17.21
2022-08-21T07:43:05.610Z,17.30
2022-08-21T07:45:35.211Z,17.44
2022-08-21T07:48:04.701Z,17.46
2022-08-21T07:50:34.165Z,17.58
2022-08-21T07:53:03.641Z,17.71
2022-08-21T07:55:33.198Z,17.88
2022-08-21T07:58:05.430Z,18.06
2022-08-21T08:00:35.654Z,18.20
2022-08-21T08:03:05.194Z,18.29
2022-08-21T08:05:38.189Z,18.49
2022-08-21T08:08:07.795Z,18.80
2022-08-21T08:10:37.461Z,18.95
2022-08-21T08:13:10.413Z,18.97
2022-08-21T08:15:40.452Z,18.94
2022-08-21T08:18:12.464Z,18.92
2022-08-21T08:20:42.181Z,19.03
2022-08-21T08:23:13.639Z,19.11
2022-08-21T08:25:43.337Z,19.18
2022-08-21T08:28:17.205Z,19.32
2022-08-21T08:30:47.824Z,19.34
2022-08-21T08:33:18.010Z,19.27
2022-08-21T08:35:49.506Z,19.27
2022-08-21T08:38:20.798Z,19.30
2022-08-21T08:40:57.397Z,19.49
2022-08-21T08:43:30.900Z,19.63
2022-08-21T08:46:02.429Z,19.63
2022-08-21T08:48:42.141Z,19.49
2022-08-21T08:51:14.196Z,19.47
2022-08-21T08:53:51.590Z,19.59
2022-08-21T08:56:25.716Z,19.70
2022-08-21T08:58:58.460Z,19.72
2022-08-21T09:01:28.191Z,19.92
2022-08-21T09:03:58.822Z,20.17
2022-08-21T09:06:40.229Z,20.33
2022-08-21T09:09:21.482Z,20.35
2022-08-21T09:11:56.603Z,20.44
2022-08-21T09:14:31.597Z,20.56
2022-08-21T09:17:07.666Z,20.40
2022-08-21T09:19:47.901Z,20.27
2022-08-21T09:22:23.099Z,20.32
2022-08-21T09:25:00.825Z,20.41
2022-08-21T09:27:30.399Z,20.58
2022-08-21T09:30:03.037Z,20.73
2022-08-21T09:32:37.281Z,20.74
2022-08-21T09:35:10.379Z,20.92
2022-08-21T09:37:53.087Z,21.07
2022-08-21T09:40:31.766Z,21.06
2022-08-21T09:43:03.702Z,20.94
2022-08-21T09:45:37.090Z,20.98
2022-08-21T09:48:15.470Z,21.08
2022-08-21T09:50:48.543Z,20.95
2022-08-21T09:53:23.999Z,20.94
2022-08-21T09:56:08.403Z,21.16
2022-08-21T09:58:40.050Z,21.18
2022-08-21T10:01:17.734Z,21.50
2022-08-21T10:03:47.613Z,21.60
2022-08-21T10:06:27.552Z,21.53
2022-08-21T10:09:11.314Z,21.54
2022-08-21T10:11:43.723Z,21.42
2022-08-21T10:14:19.769Z,21.44
2022-08-21T10:17:00.643Z,21.40
2022-08-21T10:19:36.150Z,20.86
2022-08-21T10:22:15.042Z,20.92
2022-08-21T10:24:56.664Z,21.04
2022-08-21T10:27:34.161Z,21.35
2022-08-21T10:30:08.218Z,21.14
2022-08-21T10:32:50.269Z,21.27
2022-08-21T10:35:25.353Z,21.51
2022-08-21T10:38:07.517Z,21.71
2022-08-21T10:40:41.757Z,21.80
2022-08-21T10:43:22.537Z,21.92
2022-08-21T10:46:00.384Z,22.08
2022-08-21T10:48:39.570Z,22.30
2022-08-21T10:51:14.675Z,21.55
2022-08-21T10:53:55.263Z,21.60
2022-08-21T10:56:27.118Z,21.78
2022-08-21T10:59:15.505Z,22.18
2022-08-21T11:01:49.713Z,22.34
2022-08-21T11:04:26.010Z,22.31
2022-08-21T11:07:09.208Z,21.93
2022-08-21T11:09:49.819Z,21.92
2022-08-21T11:12:26.686Z,22.22
2022-08-21T11:14:59.413Z,22.37
2022-08-21T11:17:35.136Z,22.64
2022-08-21T11:20:13.544Z,22.85
2022-08-21T11:22:54.280Z,23.01
2022-08-21T11:25:27.381Z,23.17
2022-08-21T11:28:14.191Z,22.71
2022-08-21T11:30:52.215Z,22.32
2022-08-21T11:33:33.156Z,22.67
2022-08-21T11:36:13.288Z,22.44
2022-08-21T11:38:44.915Z,22.35
2022-08-21T11:41:25.089Z,22.22
2022-08-21T11:43:59.286Z,22.41
2022-08-21T11:46:35.049Z,22.28
2022-08-21T11:49:24.979Z,22.09
2022-08-21T11:52:02.934Z,21.93
2022-08-21T11:54:37.705Z,21.77
2022-08-21T11:57:09.856Z,22.26
2022-08-21T11:59:43.277Z,22.60
2022-08-21T12:02:17.626Z,22.66
2022-08-21T12:04:50.670Z,22.60
2022-08-21T12:07:35.303Z,22.75
2022-08-21T12:10:06.846Z,22.92
2022-08-21T12:12:37.951Z,23.25
2022-08-21T12:15:16.671Z,23.39
2022-08-21T12:17:57.307Z,23.35
2022-08-21T12:20:50.005Z,23.15
2022-08-21T12:23:30.613Z,23.11
2022-08-21T12:26:06.710Z,23.31
2022-08-21T12:28:36.302Z,23.17
2022-08-21T12:31:06.215Z,22.97
2022-08-21T12:33:37.953Z,23.12
2022-08-21T12:36:11.924Z,23.32
2022-08-21T12:38:51.522Z,23.75
2022-08-21T12:41:25.821Z,23.87
2022-08-21T12:43:57.915Z,23.85
2022-08-21T12:46:34.000Z,23.40
2022-08-21T12:49:06.751Z,22.85
2022-08-21T12:51:42.267Z,22.97
2022-08-21T12:54:14.364Z,23.50
2022-08-21T12:56:43.851Z,23.95
2022-08-21T12:59:16.274Z,24.16
2022-08-21T13:01:50.759Z,23.69
2022-08-21T13:04:26.311Z,23.55
2022-08-21T13:06:57.998Z,24.16
2022-08-21T13:09:32.718Z,24.55
2022-08-21T13:12:02.864Z,24.86
2022-08-21T13:14:35.278Z,25.39
2022-08-21T13:17:23.589Z,26.01
2022-08-21T13:20:00.499Z,26.52
2022-08-21T13:22:34.938Z,26.37
2022-08-21T13:25:13.837Z,27.06
2022-08-21T13:27:44.037Z,27.63
2022-08-21T13:30:16.409Z,27.27
2022-08-21T13:32:47.632Z,27.24
2022-08-21T13:35:20.439Z,27.65
2022-08-21T13:37:52.103Z,27.38
2022-08-21T13:40:28.954Z,27.64
2022-08-21T13:42:58.922Z,26.59
2022-08-21T13:45:31.965Z,25.37
2022-08-21T13:48:06.558Z,26.65
2022-08-21T13:50:45.062Z,27.17
2022-08-21T13:53:26.179Z,27.61
2022-08-21T13:56:00.741Z,27.25
2022-08-21T13:58:32.264Z,27.70
2022-08-21T14:01:06.723Z,27.65
2022-08-21T14:03:39.835Z,27.28
2022-08-21T14:06:15.814Z,26.43
2022-08-21T14:08:45.907Z,25.65
2022-08-21T14:11:19.160Z,25.96
2022-08-21T14:13:51.562Z,26.21
2022-08-21T14:16:24.071Z,26.34
2022-08-21T14:18:59.339Z,26.32
2022-08-21T14:21:34.322Z,25.95
2022-08-21T14:24:10.011Z,26.13
2022-08-21T14:26:48.384Z,25.96
2022-08-21T14:29:19.805Z,25.40
2022-08-21T14:31:54.952Z,24.64
2022-08-21T14:34:25.158Z,24.35
2022-08-21T14:36:55.085Z,24.48
2022-08-21T14:39:24.836Z,24.56
2022-08-21T14:41:58.306Z,24.65
2022-08-21T14:44:27.782Z,24.65
2022-08-21T14:46:58.036Z,24.49
2022-08-21T14:49:29.751Z,24.52
2022-08-21T14:52:00.548Z,24.49
2022-08-21T14:54:31.862Z,24.29
2022-08-21T14:57:07.482Z,24.49
2022-08-21T14:59:37.271Z,24.47
2022-08-21T15:02:07.374Z,24.50
2022-08-21T15:04:37.870Z,24.38
2022-08-21T15:07:07.790Z,24.26
2022-08-21T15:09:37.286Z,24.22
2022-08-21T15:12:11.275Z,24.30
2022-08-21T15:14:43.541Z,24.32
2022-08-21T15:17:13.991Z,24.09
2022-08-21T15:19:43.580Z,23.71
2022-08-21T15:22:18.612Z,23.49
2022-08-21T15:24:48.713Z,23.34
2022-08-21T15:27:22.470Z,23.35
2022-08-21T15:29:54.249Z,23.43
2022-08-21T15:32:29.850Z,23.53
2022-08-21T15:35:00.304Z,23.54
2022-08-21T15:37:30.115Z,23.57
2022-08-21T15:39:59.829Z,23.68
2022-08-21T15:42:32.039Z,23.60
2022-08-21T15:45:02.094Z,23.37
2022-08-21T15:47:34.402Z,23.23
2022-08-21T15:50:03.995Z,23.12
2022-08-21T15:52:33.508Z,23.08
2022-08-21T15:55:03.033Z,23.12
2022-08-21T15:57:35.652Z,23.24
2022-08-21T16:00:12.871Z,23.41
2022-08-21T16:02:44.004Z,23.52
2022-08-21T16:05:14.175Z,23.45
2022-08-21T16:07:43.885Z,23.31
2022-08-21T16:10:13.990Z,23.20
2022-08-21T16:12:48.922Z,23.12
2022-08-21T16:15:20.815Z,22.99
2022-08-21T16:17:51.321Z,22.74
2022-08-21T16:20:25.051Z,22.76
2022-08-21T16:22:55.192Z,22.73
2022-08-21T16:25:25.296Z,22.66
2022-08-21T16:28:00.315Z,22.67
2022-08-21T16:30:31.249Z,22.68
2022-08-21T16:33:03.150Z,22.77
2022-08-21T16:35:32.716Z,22.82
2022-08-21T16:38:02.477Z,22.86
2022-08-21T16:40:33.384Z,22.86
2022-08-21T16:43:05.623Z,22.91
2022-08-21T16:45:35.262Z,22.90
2022-08-21T16:48:09.686Z,22.96
2022-08-21T16:50:40.446Z,22.86
2022-08-21T16:53:10.346Z,22.70
2022-08-21T16:55:40.627Z,22.61
2022-08-21T16:58:18.645Z,22.55
2022-08-21T17:00:48.264Z,22.47
2022-08-21T17:03:21.537Z,22.31
2022-08-21T17:05:51.386Z,22.32
2022-08-21T17:08:20.822Z,22.32
2022-08-21T17:10:52.332Z,22.33
2022-08-21T17:13:24.485Z,22.36
2022-08-21T17:15:54.502Z,22.35
2022-08-21T17:18:26.042Z,22.31
2022-08-21T17:20:55.816Z,22.22
2022-08-21T17:23:25.314Z,22.13
2022-08-21T17:25:56.990Z,22.01
2022-08-21T17:28:30.971Z,21.85
2022-08-21T17:31:02.535Z,21.83
2022-08-21T17:33:45.819Z,21.73
2022-08-21T17:36:15.382Z,21.63
2022-08-21T17:38:44.896Z,21.59
2022-08-21T17:41:16.074Z,21.49
2022-08-21T17:43:48.209Z,21.41
2022-08-21T17:46:21.970Z,21.29
2022-08-21T17:48:51.647Z,21.21
2022-08-21T17:51:22.024Z,21.07
2022-08-21T17:53:51.499Z,21.01
2022-08-21T17:56:21.975Z,21.02
2022-08-21T17:58:54.688Z,21.02
2022-08-21T18:01:24.486Z,20.98
2022-08-21T18:03:54.035Z,20.95
2022-08-21T18:06:23.562Z,20.93
2022-08-21T18:08:53.178Z,20.79
2022-08-21T18:11:25.626Z,20.67
2022-08-21T18:14:03.876Z,20.69
2022-08-21T18:16:38.273Z,20.62
2022-08-21T18:19:09.687Z,20.49
2022-08-21T18:21:39.341Z,20.43
2022-08-21T18:24:09.095Z,20.31
2022-08-21T18:26:40.750Z,20.22
2022-08-21T18:29:16.286Z,20.25
2022-08-21T18:31:46.634Z,20.06
2022-08-21T18:34:23.761Z,20.04
2022-08-21T18:36:53.806Z,19.97
2022-08-21T18:39:39.796Z,19.87
2022-08-21T18:42:13.076Z,19.81
2022-08-21T18:44:47.530Z,19.76
2022-08-21T18:47:25.174Z,19.71
2022-08-21T18:49:55.194Z,19.67
2022-08-21T18:52:28.494Z,19.68
2022-08-21T18:54:58.298Z,19.68
2022-08-21T18:57:37.041Z,19.58
2022-08-21T19:00:13.508Z,19.50
2022-08-21T19:02:44.314Z,19.40
2022-08-21T19:05:15.424Z,19.33
2022-08-21T19:07:47.021Z,19.27
2022-08-21T19:10:27.759Z,19.16
2022-08-21T19:13:08.069Z,19.11
2022-08-21T19:15:42.270Z,19.11
2022-08-21T19:18:14.777Z,19.02
2022-08-21T19:20:47.262Z,18.91
2022-08-21T19:23:18.422Z,18.88
2022-08-21T19:28:42.150Z,18.81
2022-08-21T19:31:19.806Z,18.78
2022-08-21T19:34:01.619Z,18.68
2022-08-21T19:36:46.172Z,18.63
2022-08-21T19:39:17.752Z,18.60
2022-08-21T19:41:51.373Z,18.53
2022-08-21T19:44:24.014Z,18.50
2022-08-21T19:46:59.865Z,18.51
2022-08-21T19:49:36.430Z,18.52
2022-08-21T19:52:12.998Z,18.46
2022-08-21T19:54:43.481Z,18.39
2022-08-21T19:57:15.136Z,18.35
2022-08-21T19:59:45.519Z,18.29
2022-08-21T20:02:19.807Z,18.29
2022-08-21T20:04:53.836Z,18.22
2022-08-21T20:07:26.618Z,18.23
2022-08-21T20:09:56.943Z,18.16
2022-08-21T20:12:26.706Z,18.10
2022-08-21T20:14:56.502Z,18.07
2022-08-21T20:17:29.005Z,18.31
2022-08-21T20:19:58.565Z,18.39
2022-08-21T20:22:28.139Z,18.69
2022-08-21T20:24:57.929Z,18.86
2022-08-21T20:27:29.129Z,18.87
2022-08-21T20:29:59.309Z,18.74
2022-08-21T20:32:32.357Z,18.62
2022-08-21T20:35:02.734Z,18.52
2022-08-21T20:37:36.297Z,18.64
2022-08-21T20:43:00.802Z,18.19
2022-08-21T20:45:32.505Z,18.13
2022-08-21T20:48:09.212Z,18.06
2022-08-21T20:50:41.105Z,17.92
2022-08-21T20:53:15.296Z,17.76
2022-08-21T20:55:48.632Z,17.63
2022-08-21T20:58:23.698Z,17.52
2022-08-21T21:01:01.759Z,17.34
2022-08-21T21:03:37.646Z,17.19
2022-08-21T21:06:14.473Z,17.27
2022-08-21T21:08:47.000Z,17.34
2022-08-21T21:11:21.753Z,17.29
2022-08-21T21:13:54.494Z,17.26
2022-08-21T21:16:28.014Z,17.21
2022-08-21T21:19:03.676Z,17.14
2022-08-21T21:21:36.139Z,17.05
2022-08-21T21:24:09.606Z,17.01
2022-08-21T21:26:49.010Z,16.94
2022-08-21T21:29:22.339Z,16.87
2022-08-21T21:31:52.055Z,16.83
2022-08-21T21:34:28.048Z,16.80
2022-08-21T21:37:00.110Z,16.80
2022-08-21T21:39:36.098Z,16.77
2022-08-21T21:42:12.553Z,16.81
2022-08-21T21:45:09.430Z,16.80
2022-08-21T21:47:48.401Z,16.80
2022-08-21T21:50:35.973Z,16.70
2022-08-21T21:53:21.795Z,16.63
2022-08-21T21:56:02.959Z,16.66
2022-08-21T21:58:43.716Z,16.55
2022-08-21T22:01:17.306Z,16.55
2022-08-21T22:03:55.806Z,16.46
2022-08-21T22:06:36.422Z,16.47
2022-08-21T22:09:12.516Z,16.40
2022-08-21T22:11:55.388Z,16.41
2022-08-21T22:14:32.738Z,16.41
2022-08-21T22:17:09.198Z,16.45
2022-08-21T22:19:42.546Z,16.43
2022-08-21T22:22:18.760Z,16.54
2022-08-21T22:24:52.416Z,16.57
2022-08-21T22:27:24.070Z,16.46
2022-08-21T22:29:55.990Z,16.36
2022-08-21T22:32:28.081Z,16.24
2022-08-21T22:35:12.751Z,16.26
2022-08-21T22:40:38.936Z,16.37
2022-08-21T22:43:10.656Z,16.33
2022-08-21T22:45:54.789Z,16.32
2022-08-21T22:48:24.875Z,16.19
2022-08-21T22:50:58.096Z,16.15
2022-08-21T22:53:33.586Z,16.16
2022-08-21T22:56:05.330Z,16.17
2022-08-21T22:58:40.862Z,16.16
2022-08-21T23:01:17.861Z,16.15
2022-08-21T23:03:50.225Z,16.14
2022-08-21T23:06:39.238Z,16.20
2022-08-21T23:09:11.836Z,16.19
2022-08-21T23:11:44.745Z,16.25
2022-08-21T23:14:20.387Z,16.23
2022-08-21T23:16:55.045Z,16.21
2022-08-21T23:19:38.179Z,16.15
2022-08-21T23:22:38.626Z,16.16
2022-08-21T23:25:24.570Z,16.26
2022-08-21T23:28:00.058Z,16.22
2022-08-21T23:30:38.202Z,16.30
2022-08-21T23:33:34.282Z,16.23
2022-08-21T23:36:24.586Z,16.17
2022-08-21T23:39:07.426Z,16.18
2022-08-21T23:41:45.434Z,16.26
2022-08-21T23:44:33.389Z,16.36
2022-08-21T23:47:13.673Z,16.27
2022-08-21T23:49:53.856Z,16.21
2022-08-21T23:52:31.544Z,16.36
2022-08-21T23:55:14.023Z,16.28
2022-08-21T23:57:53.702Z,16.43
